Time;durP1;ratioP1;P1;durP2;ratioP2;P2;SDS_P1;SDS_P2;PMS_P1;PMS_P2;Temp;Humidity;BMP_temperature;BMP_pressure;BME280_temperature;BME280_humidity;BME280_pressure;Samples;Min_cycle;Max_cycle;Signal;HPM_P1;HPM_P2
2022/05/09 00:01:29;;;;;;;18.95;7.60;;;;;;;9.83;63.17;102637.94;5051001;28;20028;-55
2022/05/09 00:03:55;;;;;;;18.77;8.10;;;;;;;9.78;63.31;102638.72;5043258;28;20029;-55
2022/05/09 00:06:20;;;;;;;20.38;7.80;;;;;;;9.73;63.62;102641.41;5036000;28;20104;-56
2022/05/09 00:08:45;;;;;;;19.73;7.43;;;;;;;9.71;63.73;102634.47;5040259;28;20098;-55
2022/05/09 00:11:11;;;;;;;18.40;7.63;;;;;;;9.65;64.00;102630.78;5043123;28;20460;-55
2022/05/09 00:13:37;;;;;;;20.80;7.88;;;;;;;9.59;64.52;102629.88;5043297;28;20139;-53
2022/05/09 00:16:03;;;;;;;21.10;8.02;;;;;;;9.54;64.47;102629.00;5039826;28;20033;-53
2022/05/09 00:18:28;;;;;;;20.58;8.07;;;;;;;9.51;64.90;102619.28;5045949;28;20167;-54
2022/05/09 00:20:53;;;;;;;21.73;8.52;;;;;;;9.47;64.78;102626.41;5044506;28;20025;-55
2022/05/09 00:23:19;;;;;;;18.95;8.13;;;;;;;9.43;65.13;102622.47;5050385;28;20064;-53
2022/05/09 00:25:44;;;;;;;21.55;8.57;;;;;;;9.43;65.30;102620.56;5038012;28;20103;-55
2022/05/09 00:28:09;;;;;;;22.23;8.20;;;;;;;9.37;65.64;102618.81;5040136;28;20029;-54
2022/05/09 00:30:35;;;;;;;21.17;8.32;;;;;;;9.35;65.45;102616.31;5042871;28;20056;-54
2022/05/09 00:33:00;;;;;;;20.90;8.40;;;;;;;9.23;66.41;102617.50;5049960;28;20022;-54
2022/05/09 00:35:25;;;;;;;19.67;8.02;;;;;;;9.19;66.53;102622.72;5042143;28;20074;-53
2022/05/09 00:37:51;;;;;;;18.98;7.88;;;;;;;9.13;66.64;102618.19;5039521;28;20051;-54
2022/05/09 00:40:17;;;;;;;20.30;8.63;;;;;;;9.06;66.84;102621.13;5041809;28;20052;-53
2022/05/09 00:42:48;;;;;;;21.00;8.30;;;;;;;9.04;67.29;102615.84;5033854;28;20030;-53
2022/05/09 00:45:14;;;;;;;18.45;7.88;;;;;;;9.01;67.50;102613.63;5041745;28;20102;-51
2022/05/09 00:47:39;;;;;;;21.15;8.52;;;;;;;8.98;67.66;102621.53;5038223;28;20120;-54
2022/05/09 00:50:06;;;;;;;18.00;7.75;;;;;;;8.92;67.74;102609.59;5038397;28;20031;-53
2022/05/09 00:52:46;;;;;;;20.70;7.97;;;;;;;8.84;67.88;102605.31;5051698;28;20029;-51
2022/05/09 00:55:21;;;;;;;21.98;8.45;;;;;;;8.88;68.02;102620.28;5046265;28;20382;-54
2022/05/09 00:57:54;;;;;;;19.85;8.48;;;;;;;8.80;68.25;102606.91;5033169;28;20025;-53
2022/05/09 01:00:21;;;;;;;21.00;8.70;;;;;;;8.86;68.18;102616.97;5031989;28;20348;-53
2022/05/09 01:02:52;;;;;;;18.85;8.38;;;;;;;8.74;68.60;102597.69;5031597;28;20109;-54
2022/05/09 01:05:17;;;;;;;21.10;8.20;;;;;;;8.78;68.45;102606.34;5031698;28;20449;-54
2022/05/09 01:07:43;;;;;;;19.55;8.15;;;;;;;8.77;68.61;102607.44;5032242;28;20029;-54
2022/05/09 01:10:15;;;;;;;19.83;8.85;;;;;;;8.73;69.21;102609.00;5031649;28;20026;-52
2022/05/09 01:12:42;;;;;;;18.38;7.93;;;;;;;8.69;69.15;102610.59;5031509;28;20341;-53
2022/05/09 01:15:12;;;;;;;24.05;8.90;;;;;;;8.61;69.04;102586.16;5030125;28;20431;-50
2022/05/09 01:17:39;;;;;;;22.05;8.70;;;;;;;8.65;69.34;102592.88;5031873;28;20021;-52
2022/05/09 01:20:07;;;;;;;23.60;9.07;;;;;;;8.56;69.13;102586.91;5031704;28;20602;-54
2022/05/09 01:22:35;;;;;;;19.50;8.10;;;;;;;8.54;69.40;102584.41;5044017;28;20072;-54
2022/05/09 01:25:04;;;;;;;22.17;8.77;;;;;;;8.50;69.68;102579.66;5051290;28;20059;-54
2022/05/09 01:27:31;;;;;;;20.90;8.65;;;;;;;8.53;70.03;102591.00;5042666;28;20068;-51
2022/05/09 01:30:06;;;;;;;19.75;8.93;;;;;;;8.54;69.79;102597.38;5042441;28;20525;-54
2022/05/09 01:32:40;;;;;;;21.23;8.57;;;;;;;8.41;69.92;102584.69;5050076;28;20037;-54
2022/05/09 01:35:34;;;;;;;20.05;8.60;;;;;;;8.46;69.70;102601.34;5042265;28;20550;-54
2022/05/09 01:38:11;;;;;;;21.48;8.90;;;;;;;8.43;70.47;102604.59;5011510;28;20045;-55
2022/05/09 01:40:36;;;;;;;20.63;8.85;;;;;;;8.34;70.77;102584.00;5045068;28;20041;-54
2022/05/09 01:43:02;;;;;;;21.45;8.90;;;;;;;8.30;70.90;102588.38;5044834;28;20492;-56
2022/05/09 01:45:27;;;;;;;19.35;8.52;;;;;;;8.30;70.62;102594.72;5038120;28;20028;-53
2022/05/09 01:50:36;;;;;;;23.20;9.40;;;;;;;8.24;71.22;102588.25;5045547;28;20582;-54
2022/05/09 01:53:01;;;;;;;20.83;8.95;;;;;;;8.19;71.22;102592.84;5046372;28;20037;-52
2022/05/09 01:55:27;;;;;;;20.10;8.68;;;;;;;8.18;71.08;102594.78;5046091;28;20097;-53
2022/05/09 01:57:52;;;;;;;19.77;8.32;;;;;;;8.20;71.15;102586.25;5041683;28;20550;-51
2022/05/09 02:00:18;;;;;;;21.83;9.32;;;;;;;8.16;71.72;102583.16;5042193;28;20036;-54
2022/05/09 02:02:44;;;;;;;22.77;8.70;;;;;;;8.16;71.78;102590.59;5042720;28;20163;-54
2022/05/09 02:05:10;;;;;;;19.13;8.43;;;;;;;8.08;72.11;102586.31;5046616;28;20108;-54
2022/05/09 02:07:35;;;;;;;20.42;9.00;;;;;;;8.05;72.26;102590.41;5051369;28;20460;-54
2022/05/09 02:10:02;;;;;;;19.13;8.85;;;;;;;7.98;72.20;102595.22;5042852;28;20137;-54
2022/05/09 02:12:28;;;;;;;20.58;9.20;;;;;;;7.95;72.36;102581.94;5043901;28;20049;-54
2022/05/09 02:14:53;;;;;;;22.40;9.32;;;;;;;7.87;72.62;102583.16;5042375;28;20463;-54
2022/05/09 02:17:18;;;;;;;22.92;9.00;;;;;;;7.83;73.29;102578.38;5047106;28;20024;-53
2022/05/09 02:19:44;;;;;;;19.83;9.07;;;;;;;7.88;72.68;102584.00;5041660;28;20113;-52
2022/05/09 02:22:10;;;;;;;21.48;8.77;;;;;;;7.83;73.20;102589.41;5032104;28;20034;-53
2022/05/09 02:24:36;;;;;;;21.38;8.93;;;;;;;7.79;73.35;102583.53;5054095;22;20032;-54
2022/05/09 02:27:01;;;;;;;22.38;9.43;;;;;;;7.75;73.46;102577.69;5044867;28;20041;-55
2022/05/09 02:29:27;;;;;;;22.45;9.13;;;;;;;7.76;73.29;102584.00;5048678;28;20021;-55
2022/05/09 02:31:55;;;;;;;21.13;9.52;;;;;;;7.77;73.37;102583.78;5035258;28;20112;-55
2022/05/09 02:34:21;;;;;;;19.13;8.82;;;;;;;7.76;73.55;102589.53;5040506;28;20029;-57
2022/05/09 02:36:46;;;;;;;21.48;8.82;;;;;;;7.73;73.96;102585.34;5041851;28;20029;-54
2022/05/09 02:39:11;;;;;;;19.88;9.20;;;;;;;7.70;73.78;102585.00;5044537;28;20023;-55
2022/05/09 02:41:36;;;;;;;23.98;8.88;;;;;;;7.62;74.37;102588.97;5048395;28;20087;-54
2022/05/09 02:44:03;;;;;;;23.48;9.95;;;;;;;7.49;75.13;102577.16;5047334;28;20025;-54
2022/05/09 02:46:28;;;;;;;21.40;9.05;;;;;;;7.43;75.14;102571.78;5053305;28;20400;-56
2022/05/09 02:48:55;;;;;;;21.98;9.75;;;;;;;7.41;75.25;102580.28;5046829;28;20243;-55
2022/05/09 02:51:20;;;;;;;21.77;9.85;;;;;;;7.39;75.49;102576.09;5052992;28;20036;-55
2022/05/09 02:53:45;;;;;;;20.17;9.35;;;;;;;7.39;74.94;102570.56;5050152;28;20033;-55
2022/05/09 02:56:11;;;;;;;23.00;9.95;;;;;;;7.36;75.14;102571.91;5045136;28;20396;-55
2022/05/09 02:58:37;;;;;;;24.65;9.40;;;;;;;7.35;75.43;102575.72;5050270;28;20028;-55
2022/05/09 03:01:03;;;;;;;21.17;9.48;;;;;;;7.30;75.84;102581.16;5049834;28;20040;-55
2022/05/09 03:06:13;;;;;;;19.35;9.40;;;;;;;7.16;76.80;102578.63;5051333;28;20373;-56
2022/05/09 03:08:38;;;;;;;19.95;9.02;;;;;;;7.08;77.04;102579.00;5037439;28;20460;-55
2022/05/09 03:11:03;;;;;;;21.33;9.70;;;;;;;7.08;77.09;102569.91;5044607;28;20122;-56
2022/05/09 03:13:29;;;;;;;21.20;9.13;;;;;;;7.01;77.26;102565.34;5050183;28;20037;-56
2022/05/09 03:15:55;;;;;;;19.23;9.65;;;;;;;6.94;78.01;102572.06;5043854;28;20050;-56
2022/05/09 03:18:24;;;;;;;22.23;9.63;;;;;;;6.94;77.64;102570.16;5037296;28;20036;-56
2022/05/09 03:20:51;;;;;;;23.00;9.10;;;;;;;6.93;77.71;102568.47;5042604;28;20025;-54
2022/05/09 03:23:17;;;;;;;21.30;9.40;;;;;;;6.93;77.67;102567.63;5042980;28;20495;-54
2022/05/09 03:25:42;;;;;;;21.65;9.85;;;;;;;6.92;77.83;102566.78;5044294;28;20092;-55
2022/05/09 03:28:15;;;;;;;20.35;9.20;;;;;;;6.89;78.18;102563.69;5035471;28;20031;-55
2022/05/09 03:30:44;;;;;;;21.17;10.25;;;;;;;6.85;77.76;102555.91;5041936;28;20097;-55
2022/05/09 03:33:11;;;;;;;23.45;9.95;;;;;;;6.79;78.30;102556.84;5052137;28;20027;-55
2022/05/09 03:35:37;;;;;;;22.00;9.73;;;;;;;6.82;77.81;102555.53;5045639;28;20025;-55
2022/05/09 03:38:02;;;;;;;20.95;10.30;;;;;;;6.74;78.17;102555.91;5035869;28;20036;-55
2022/05/09 03:40:28;;;;;;;21.38;9.60;;;;;;;6.70;78.21;102555.53;5043377;28;20036;-55
2022/05/09 03:42:54;;;;;;;23.50;10.13;;;;;;;6.66;78.94;102555.19;5050921;28;20452;-55
2022/05/09 03:45:19;;;;;;;25.23;12.90;;;;;;;6.69;78.32;102556.59;5040205;28;20068;-55
2022/05/09 03:47:44;;;;;;;24.63;10.98;;;;;;;6.69;78.39;102562.09;5038421;28;20038;-56
2022/05/09 03:50:12;;;;;;;23.65;10.23;;;;;;;6.64;78.41;102548.25;5048838;28;20021;-57
2022/05/09 03:52:38;;;;;;;21.83;10.00;;;;;;;6.67;78.93;102559.59;5035638;28;20021;-55
2022/05/09 03:55:04;;;;;;;20.88;9.82;;;;;;;6.62;78.55;102555.88;5042121;28;20091;-58
2022/05/09 03:57:30;;;;;;;21.45;9.75;;;;;;;6.59;79.25;102554.47;5040181;28;20108;-58
2022/05/09 03:59:55;;;;;;;22.55;10.25;;;;;;;6.58;78.90;102546.44;5048525;28;20135;-55
2022/05/09 04:02:20;;;;;;;22.02;10.25;;;;;;;6.59;78.93;102554.47;5035893;28;20472;-55
2022/05/09 04:04:45;;;;;;;23.08;10.85;;;;;;;6.62;78.63;102542.97;5041517;28;20100;-55
2022/05/09 04:07:11;;;;;;;23.52;10.63;;;;;;;6.61;78.66;102549.56;5044090;28;20025;-56
2022/05/09 04:09:36;;;;;;;22.58;10.75;;;;;;;6.63;78.92;102549.31;5045175;28;20079;-55
2022/05/09 04:12:03;;;;;;;23.95;10.75;;;;;;;6.61;78.78;102551.47;5053258;28;20369;-56
2022/05/09 04:17:25;;;;;;;22.88;10.38;;;;;;;6.61;79.25;102562.47;5010740;28;20505;-56
2022/05/09 04:19:51;;;;;;;21.88;10.57;;;;;;;6.67;79.26;102562.34;5043498;28;20038;-56
2022/05/09 04:22:16;;;;;;;19.98;10.52;;;;;;;6.71;79.08;102555.28;5053180;28;20383;-57
2022/05/09 04:24:43;;;;;;;21.25;10.52;;;;;;;6.73;78.79;102555.06;5043456;28;20044;-56
2022/05/09 04:27:08;;;;;;;24.02;10.07;;;;;;;6.77;78.61;102553.50;5035733;28;20021;-56
2022/05/09 04:29:34;;;;;;;20.85;10.32;;;;;;;6.76;78.68;102549.06;5044507;28;20083;-56
2022/05/09 04:32:00;;;;;;;21.70;10.10;;;;;;;6.78;78.65;102548.84;5045765;28;20120;-56
2022/05/09 04:34:25;;;;;;;20.83;10.25;;;;;;;6.81;78.75;102551.97;5034444;28;20072;-57
2022/05/09 04:36:50;;;;;;;21.23;10.13;;;;;;;6.83;78.26;102541.56;5047747;28;20039;-58
2022/05/09 04:39:16;;;;;;;21.52;10.50;;;;;;;6.87;78.61;102541.91;5037524;28;20116;-57
2022/05/09 04:41:41;;;;;;;23.88;11.45;;;;;;;6.87;78.64;102545.50;5048931;28;20112;-56
2022/05/09 04:44:08;;;;;;;21.90;10.65;;;;;;;6.92;78.51;102541.19;5036140;28;20061;-57
2022/05/09 04:46:34;;;;;;;22.48;10.43;;;;;;;6.97;78.42;102538.56;5038412;28;20064;-57
2022/05/09 04:48:59;;;;;;;23.40;10.07;;;;;;;7.03;78.39;102543.13;5047313;28;20059;-57
2022/05/09 04:51:24;;;;;;;23.52;10.90;;;;;;;7.09;78.18;102546.78;5040896;28;20025;-57
2022/05/09 04:53:50;;;;;;;22.48;10.98;;;;;;;7.14;77.97;102544.16;5049243;28;20036;-56
2022/05/09 04:56:19;;;;;;;20.80;10.55;;;;;;;7.19;77.73;102544.28;5048267;28;20549;-57
2022/05/09 04:58:44;;;;;;;22.70;10.63;;;;;;;7.24;77.63;102543.53;5042327;28;20441;-57
2022/05/09 05:01:10;;;;;;;25.15;10.95;;;;;;;7.29;77.23;102543.69;5044740;28;20028;-56
2022/05/09 05:03:36;;;;;;;24.95;11.45;;;;;;;7.31;77.23;102536.03;5048628;28;20364;-55
2022/05/09 05:06:03;;;;;;;22.30;11.32;;;;;;;7.34;76.91;102535.50;5038690;28;21518;-55
2022/05/09 05:08:33;;;;;;;23.20;10.82;;;;;;;7.43;76.83;102527.72;5034947;28;20527;-58
2022/05/09 05:10:59;;;;;;;21.65;10.85;;;;;;;7.48;76.43;102528.66;5037020;28;20025;-56
2022/05/09 05:13:25;;;;;;;26.65;11.48;;;;;;;7.57;76.31;102529.09;5045107;28;20480;-57
2022/05/09 05:15:50;;;;;;;26.00;11.15;;;;;;;7.67;76.43;102525.72;5037471;28;20021;-56
2022/05/09 05:18:23;;;;;;;24.10;10.60;;;;;;;7.71;76.11;102523.31;5049405;28;20036;-58
2022/05/09 05:20:49;;;;;;;24.67;10.68;;;;;;;7.80;75.82;102524.59;5049186;28;20039;-57
2022/05/09 05:23:14;;;;;;;22.80;10.50;;;;;;;7.86;75.50;102526.34;5036253;28;20029;-56
2022/05/09 05:25:41;;;;;;;23.35;10.52;;;;;;;7.89;75.15;102528.63;5045511;28;20071;-56
2022/05/09 05:28:08;;;;;;;22.65;10.77;;;;;;;7.94;75.18;102534.22;5045445;28;20033;-56
2022/05/09 05:30:35;;;;;;;24.98;10.65;;;;;;;7.97;75.23;102531.00;5036488;28;20045;-56
2022/05/09 05:33:01;;;;;;;23.23;11.10;;;;;;;8.03;75.23;102533.84;5047983;28;20033;-58
2022/05/09 05:35:26;;;;;;;25.55;11.48;;;;;;;8.11;74.68;102537.03;5032134;28;20481;-55
2022/05/09 05:37:52;;;;;;;25.48;10.98;;;;;;;8.18;74.52;102536.88;5039000;28;20040;-58
2022/05/09 05:40:17;;;;;;;22.30;10.70;;;;;;;8.24;74.37;102535.88;5031873;28;20052;-57
2022/05/09 05:42:44;;;;;;;25.05;11.40;;;;;;;8.30;74.20;102524.94;5030944;28;20121;-58
2022/05/09 05:45:11;;;;;;;24.15;10.82;;;;;;;8.45;74.07;102535.41;5039365;28;20036;-56
2022/05/09 05:47:37;;;;;;;22.30;10.77;;;;;;;8.57;73.62;102533.41;5036629;28;20472;-55
2022/05/09 05:50:04;;;;;;;25.17;10.73;;;;;;;8.69;73.20;102539.69;5041020;28;20049;-55
2022/05/09 05:52:30;;;;;;;25.27;11.43;;;;;;;8.77;72.29;102527.41;5040001;28;20448;-54
2022/05/09 05:54:56;;;;;;;24.80;10.73;;;;;;;8.92;72.08;102520.44;5037557;28;20032;-56
2022/05/09 05:57:25;;;;;;;21.00;10.82;;;;;;;9.06;71.83;102521.75;5031505;28;20025;-54
2022/05/09 05:59:53;;;;;;;20.83;10.93;;;;;;;9.22;71.80;102528.28;5037163;28;20018;-56
2022/05/09 06:02:20;;;;;;;24.23;11.63;;;;;;;9.31;71.08;102529.50;5044978;28;20048;-55
2022/05/09 06:04:45;;;;;;;25.90;11.80;;;;;;;9.42;70.13;102536.03;5047081;28;20029;-56
2022/05/09 06:07:12;;;;;;;23.92;10.93;;;;;;;9.55;70.36;102537.56;5047715;28;20415;-56
2022/05/09 06:09:38;;;;;;;23.30;10.93;;;;;;;9.64;69.16;102529.63;5049451;28;20045;-56
2022/05/09 06:12:03;;;;;;;24.98;11.50;;;;;;;9.77;68.80;102531.19;5043212;28;20048;-56
2022/05/09 06:14:29;;;;;;;22.88;11.23;;;;;;;9.84;68.94;102529.88;5043652;28;20037;-58
2022/05/09 06:16:54;;;;;;;21.48;11.38;;;;;;;9.93;68.43;102534.94;5044237;28;20488;-58
2022/05/09 06:19:21;;;;;;;28.02;12.20;;;;;;;10.02;67.84;102536.13;5043380;28;20030;-57
2022/05/09 06:21:46;;;;;;;24.48;11.13;;;;;;;10.13;67.96;102537.09;5037973;28;20048;-57
2022/05/09 06:24:13;;;;;;;23.25;11.70;;;;;;;10.21;67.51;102530.22;5052799;28;20040;-57
2022/05/09 06:26:40;;;;;;;25.15;11.60;;;;;;;10.30;67.03;102529.50;5054572;28;20052;-55
2022/05/09 06:29:06;;;;;;;24.83;12.25;;;;;;;10.38;66.31;102521.84;5054801;28;20029;-56
2022/05/09 06:31:35;;;;;;;24.25;11.90;;;;;;;10.47;66.38;102523.03;5055068;28;20531;-57
2022/05/09 06:34:01;;;;;;;24.98;11.65;;;;;;;10.57;65.90;102525.06;5055305;28;20057;-57
2022/05/09 06:36:27;;;;;;;25.10;11.60;;;;;;;10.68;65.30;102525.97;5055275;28;20032;-56
2022/05/09 06:38:52;;;;;;;24.88;12.30;;;;;;;10.80;65.38;102529.38;5055250;28;20025;-55
2022/05/09 06:41:18;;;;;;;24.85;11.65;;;;;;;10.89;65.48;102525.00;5055386;28;20033;-56
2022/05/09 06:43:44;;;;;;;24.98;11.90;;;;;;;10.98;65.36;102524.50;5053859;28;20078;-56
2022/05/09 06:46:10;;;;;;;24.42;13.02;;;;;;;11.12;64.65;102522.09;5054314;28;20024;-57
2022/05/09 06:48:35;;;;;;;22.60;11.73;;;;;;;11.21;63.71;102523.22;5054170;28;20025;-56
2022/05/09 06:51:00;;;;;;;22.90;12.15;;;;;;;11.32;63.57;102524.97;5054093;28;20059;-56
2022/05/09 06:53:26;;;;;;;24.08;12.00;;;;;;;11.45;62.94;102518.09;5054245;28;20032;-56
2022/05/09 06:55:51;;;;;;;22.90;11.93;;;;;;;11.56;63.15;102516.16;5054897;28;20357;-57
2022/05/09 06:58:22;;;;;;;25.33;12.32;;;;;;;11.70;62.50;102528.44;5054869;28;20473;-57
2022/05/09 07:00:47;;;;;;;22.85;11.63;;;;;;;11.81;61.96;102518.19;5054920;28;20025;-56
2022/05/09 07:03:14;;;;;;;23.95;11.15;;;;;;;11.95;62.27;102518.50;5054780;28;20075;-56
2022/05/09 07:05:43;;;;;;;23.17;11.38;;;;;;;12.09;61.16;102518.00;5054521;28;20507;-57
2022/05/09 07:08:09;;;;;;;23.08;11.57;;;;;;;12.20;60.62;102519.66;5054647;28;20033;-55
2022/05/09 07:10:35;;;;;;;25.08;11.25;;;;;;;12.32;61.03;102524.97;5054826;28;20029;-56
2022/05/09 07:13:01;;;;;;;23.80;11.57;;;;;;;12.36;59.18;102519.69;5054655;28;20056;-55
2022/05/09 07:15:30;;;;;;;22.60;11.25;;;;;;;12.41;58.85;102516.91;5054469;28;20025;-57
2022/05/09 07:17:58;;;;;;;23.40;11.63;;;;;;;12.54;59.25;102504.38;5054613;28;20029;-55
2022/05/09 07:20:25;;;;;;;22.88;11.75;;;;;;;12.68;59.66;102511.06;5053735;28;20025;-55
2022/05/09 07:22:55;;;;;;;20.92;11.25;;;;;;;12.79;58.91;102503.53;5054678;28;20105;-58
2022/05/09 07:25:23;;;;;;;24.05;12.02;;;;;;;12.86;58.38;102503.25;5054428;28;20064;-58
2022/05/09 07:27:48;;;;;;;22.58;11.70;;;;;;;12.91;57.81;102504.06;5054146;28;20383;-57
2022/05/09 07:30:18;;;;;;;22.48;11.75;;;;;;;12.95;58.32;102507.94;5054165;28;20037;-58
2022/05/09 07:32:44;;;;;;;25.52;13.00;;;;;;;13.06;58.22;102507.91;5054233;28;20036;-58
2022/05/09 07:35:12;;;;;;;23.70;11.77;;;;;;;13.21;57.94;102513.44;5054319;28;20025;-56
2022/05/09 07:37:38;;;;;;;23.55;11.63;;;;;;;13.27;57.20;102506.72;5052770;28;20123;-58
2022/05/09 07:40:05;;;;;;;22.70;12.02;;;;;;;13.34;57.55;102503.66;5053971;28;20056;-57
2022/05/09 07:42:34;;;;;;;25.80;12.18;;;;;;;13.46;57.31;102503.34;5054013;28;20029;-58
2022/05/09 07:44:59;;;;;;;23.92;11.82;;;;;;;13.57;56.28;102501.34;5054072;28;20203;-56
2022/05/09 07:47:24;;;;;;;23.85;11.32;;;;;;;13.67;56.65;102500.47;5053912;28;20127;-56
2022/05/09 07:49:50;;;;;;;23.73;12.23;;;;;;;13.73;56.35;102499.31;5054174;28;20033;-58
2022/05/09 07:52:15;;;;;;;22.27;11.45;;;;;;;13.77;56.00;102502.34;5054055;28;20052;-58
2022/05/09 07:54:41;;;;;;;24.30;12.18;;;;;;;13.92;56.40;102506.97;5054086;28;20064;-56
2022/05/09 07:57:06;;;;;;;22.23;11.27;;;;;;;14.05;56.43;102509.13;5053946;28;20033;-57
2022/05/09 07:59:31;;;;;;;25.08;11.80;;;;;;;14.10;55.05;102511.03;5052535;28;20112;-57
2022/05/09 08:01:57;;;;;;;22.38;12.15;;;;;;;14.20;55.95;102513.75;5053691;28;20029;-57
2022/05/09 08:04:22;;;;;;;22.80;11.20;;;;;;;14.32;55.15;102505.84;5052383;28;20055;-56
2022/05/09 08:06:48;;;;;;;27.33;12.35;;;;;;;14.46;55.11;102500.41;5053434;28;20357;-56
2022/05/09 08:09:13;;;;;;;25.95;12.18;;;;;;;14.63;54.44;102502.78;5053485;28;20134;-57
2022/05/09 08:11:39;;;;;;;24.08;11.07;;;;;;;14.76;54.21;102503.25;5054002;28;20029;-57
2022/05/09 08:14:05;;;;;;;23.23;12.90;;;;;;;14.86;54.02;102510.66;5052077;28;20040;-55
2022/05/09 08:16:31;;;;;;;23.75;12.10;;;;;;;14.95;53.74;102497.75;5053382;28;20028;-56
2022/05/09 08:18:58;;;;;;;22.90;12.57;;;;;;;15.01;53.11;102501.31;5051781;28;20017;-55
2022/05/09 08:21:24;;;;;;;21.30;10.93;;;;;;;15.18;52.50;102503.63;5031351;28;20122;-55
2022/05/09 08:23:51;;;;;;;23.02;11.18;;;;;;;15.32;53.14;102501.75;5030118;28;20500;-55
2022/05/09 08:26:19;;;;;;;21.67;10.68;;;;;;;15.43;52.81;102505.28;5031114;28;20061;-58
2022/05/09 08:28:45;;;;;;;21.80;11.85;;;;;;;15.60;52.60;102501.97;5033189;28;20120;-54
2022/05/09 08:31:11;;;;;;;22.30;11.60;;;;;;;15.69;52.16;102500.16;5030957;28;20433;-55
2022/05/09 08:33:36;;;;;;;22.67;11.60;;;;;;;15.76;50.98;102505.38;5031322;28;20606;-55
2022/05/09 08:36:07;;;;;;;23.67;11.50;;;;;;;15.83;50.90;102510.56;5030822;28;20040;-55
2022/05/09 08:38:33;;;;;;;22.05;11.10;;;;;;;15.87;50.36;102509.69;5030952;28;20477;-54
2022/05/09 08:41:04;;;;;;;23.23;11.93;;;;;;;15.94;49.97;102502.91;5030989;28;20052;-55
2022/05/09 08:43:40;;;;;;;22.17;10.85;;;;;;;16.14;49.96;102501.78;5030780;28;20459;-56
2022/05/09 08:46:18;;;;;;;22.60;11.25;;;;;;;16.28;49.02;102501.81;5031206;28;20500;-55
2022/05/09 08:49:02;;;;;;;24.52;10.98;;;;;;;16.42;49.85;102501.88;5029268;28;20048;-55
2022/05/09 08:51:59;;;;;;;24.05;11.63;;;;;;;16.57;49.96;102506.34;5031010;28;20110;-56
2022/05/09 08:54:26;;;;;;;21.23;10.80;;;;;;;16.69;48.38;102503.88;5031130;28;20033;-56
2022/05/09 08:57:07;;;;;;;21.13;10.85;;;;;;;16.77;47.96;102491.16;5031115;28;20043;-56
2022/05/09 08:59:37;;;;;;;22.80;10.57;;;;;;;16.83;47.46;102484.34;5030878;28;20033;-55
2022/05/09 09:02:11;;;;;;;23.48;10.95;;;;;;;17.02;47.16;102487.09;5030878;28;20500;-55
2022/05/09 09:04:38;;;;;;;21.65;10.73;;;;;;;17.21;45.87;102491.75;5031032;28;20543;-56
2022/05/09 09:07:19;;;;;;;22.48;10.60;;;;;;;17.36;46.30;102488.59;5030656;28;20041;-56
2022/05/09 09:10:15;;;;;;;22.17;10.85;;;;;;;17.52;46.77;102483.50;5030567;28;20038;-56
2022/05/09 09:12:57;;;;;;;23.80;11.30;;;;;;;17.65;46.44;102478.22;5030491;28;20436;-56
2022/05/09 09:15:40;;;;;;;22.95;10.95;;;;;;;17.76;46.22;102469.25;5030647;28;20112;-55
2022/05/09 09:18:24;;;;;;;24.00;11.25;;;;;;;17.75;43.79;102475.16;5030579;28;20026;-56
2022/05/09 09:21:05;;;;;;;24.88;11.50;;;;;;;17.78;44.86;102458.56;5030520;28;20033;-56
2022/05/09 09:24:01;;;;;;;20.55;10.63;;;;;;;18.00;45.36;102473.75;5030612;28;20227;-56
2022/05/09 09:26:38;;;;;;;21.13;10.43;;;;;;;18.17;43.92;102458.22;5030301;28;20132;-55
2022/05/09 09:29:30;;;;;;;20.80;9.77;;;;;;;18.27;43.58;102463.56;5030315;28;20037;-56
2022/05/09 09:32:01;;;;;;;23.25;10.88;;;;;;;18.34;43.00;102463.94;5030401;28;20072;-57
2022/05/09 09:34:31;;;;;;;21.70;10.90;;;;;;;18.45;43.16;102456.09;5050125;28;20033;-57
2022/05/09 09:37:32;;;;;;;21.42;10.32;;;;;;;18.58;44.31;102461.94;5032886;28;20356;-57
2022/05/09 09:39:58;;;;;;;22.27;10.82;;;;;;;18.58;41.83;102462.75;5029016;28;20669;-56
2022/05/09 09:42:23;;;;;;;21.30;10.52;;;;;;;18.61;42.30;102464.91;5030392;28;20200;-56
2022/05/09 09:44:49;;;;;;;21.48;10.48;;;;;;;18.75;42.04;102458.38;5033527;28;20048;-56
2022/05/09 09:47:20;;;;;;;22.80;10.90;;;;;;;18.82;41.80;102459.56;5034299;28;20109;-56
2022/05/09 09:50:11;;;;;;;22.52;10.13;;;;;;;18.94;41.79;102450.56;5034349;28;20040;-56
2022/05/09 09:52:50;;;;;;;20.80;10.32;;;;;;;19.06;41.91;102446.31;5033318;28;20112;-56
2022/05/09 09:55:39;;;;;;;21.40;11.05;;;;;;;19.20;41.99;102458.22;5034235;28;20437;-56
2022/05/09 09:58:24;;;;;;;23.33;11.88;;;;;;;19.21;40.73;102457.09;5033357;28;20052;-57
2022/05/09 10:01:10;;;;;;;20.38;10.45;;;;;;;19.24;41.50;102453.59;5035063;28;20064;-56
2022/05/09 10:03:39;;;;;;;21.05;9.90;;;;;;;19.31;40.37;102441.91;5035180;28;20025;-56
2022/05/09 10:06:16;;;;;;;21.73;10.82;;;;;;;19.36;40.51;102438.13;5034596;28;20489;-56
2022/05/09 10:08:42;;;;;;;20.92;10.65;;;;;;;19.39;39.98;102437.47;5033986;28;20560;-56
2022/05/09 10:11:11;;;;;;;22.73;10.70;;;;;;;19.35;39.53;102437.31;5033994;28;20022;-56
2022/05/09 10:13:42;;;;;;;22.02;11.60;;;;;;;19.29;39.64;102432.97;5033958;28;20037;-56
2022/05/09 10:16:11;;;;;;;21.45;11.48;;;;;;;19.48;39.98;102419.47;5033832;28;20546;-58
2022/05/09 10:18:37;;;;;;;21.40;11.15;;;;;;;19.67;40.07;102420.31;5033801;28;20074;-56
2022/05/09 10:27:21;;;;;;;22.70;10.70;;;;;;;20.28;39.12;102414.63;5033782;28;20044;-56
2022/05/09 10:29:48;;;;;;;20.80;10.13;;;;;;;20.39;38.30;102407.50;5033431;28;20021;-56
2022/05/09 10:32:19;;;;;;;22.35;10.68;;;;;;;20.28;37.44;102406.22;5034028;28;20037;-58
2022/05/09 10:35:01;;;;;;;19.63;9.73;;;;;;;20.46;39.31;102406.94;5034338;28;20346;-56
2022/05/09 10:37:52;;;;;;;19.95;10.00;;;;;;;20.66;37.84;102404.56;5034183;28;20481;-56
2022/05/09 10:40:29;;;;;;;17.67;9.20;;;;;;;20.72;36.63;102404.03;5034241;28;20033;-57
2022/05/09 10:43:25;;;;;;;19.45;9.73;;;;;;;20.78;37.95;102406.72;5033706;28;20057;-55
2022/05/09 10:45:53;;;;;;;18.83;9.70;;;;;;;20.67;36.08;102401.44;5011338;28;20034;-57
2022/05/09 10:48:21;;;;;;;20.50;9.95;;;;;;;20.59;36.64;102405.13;5033231;28;20545;-57
2022/05/09 10:50:56;;;;;;;21.75;10.68;;;;;;;20.47;36.51;102399.38;5031581;28;20108;-55
2022/05/09 10:53:44;;;;;;;20.00;10.00;;;;;;;20.50;37.97;102395.88;5033568;28;20029;-57
2022/05/09 10:56:31;;;;;;;20.58;9.70;;;;;;;20.51;36.86;102389.06;5031919;28;20034;-56
2022/05/09 10:59:00;;;;;;;20.83;9.60;;;;;;;20.65;36.30;102395.31;5031514;28;20033;-56
2022/05/09 11:02:05;;;;;;;19.48;8.93;;;;;;;20.72;37.02;102392.78;5033215;28;20080;-55
2022/05/09 11:04:31;;;;;;;;;;;;;;;20.81;37.55;102384.34;5033100;28;20480;-56
2022/05/09 11:07:17;;;;;;;19.25;9.90;;;;;;;20.76;36.91;102383.72;5032875;28;19980;-56
2022/05/09 11:10:06;;;;;;;20.45;10.07;;;;;;;20.69;36.41;102378.59;5032983;28;20087;-56
2022/05/09 11:12:42;;;;;;;20.95;9.48;;;;;;;20.71;36.82;102371.44;5032991;28;20460;-56
2022/05/09 11:15:29;;;;;;;21.17;9.88;;;;;;;20.78;36.17;102372.97;5033498;28;20048;-57
2022/05/09 11:18:25;;;;;;;20.17;9.73;;;;;;;20.95;37.09;102367.22;5033675;28;20033;-57
2022/05/09 11:21:32;;;;;;;21.08;10.20;;;;;;;21.15;37.14;102376.84;5033413;28;20030;-56
2022/05/09 11:24:14;;;;;;;21.00;10.10;;;;;;;21.51;36.64;102360.50;4975157;28;20501;-58
2022/05/09 11:26:42;;;;;;;20.30;10.02;;;;;;;21.64;36.53;102365.03;5029320;28;20053;-58
2022/05/09 11:29:22;;;;;;;21.92;10.88;;;;;;;21.75;36.51;102353.34;5033518;28;20106;-58
2022/05/09 11:32:02;;;;;;;21.00;10.43;;;;;;;21.91;36.00;102362.81;5031832;28;20037;-57
2022/05/09 11:34:45;;;;;;;21.60;10.40;;;;;;;21.77;35.57;102345.38;5033060;28;20064;-56
2022/05/09 11:37:29;;;;;;;20.00;10.00;;;;;;;21.70;34.95;102345.13;5033273;28;20037;-57
2022/05/09 11:40:14;;;;;;;20.55;9.75;;;;;;;21.83;35.96;102334.72;5032986;28;20029;-56
2022/05/09 11:46:01;;;;;;;20.70;10.60;;;;;;;21.83;34.99;102341.16;5033361;28;20040;-58